Time;durP1;ratioP1;P1;durP2;ratioP2;P2;SDS_P1;SDS_P2;PMS_P1;PMS_P2;Temp;Humidity;BMP_temperature;BMP_pressure;BME280_temperature;BME280_humidity;BME280_pressure;Samples;Min_cycle;Max_cycle;Signal;HPM_P1;HPM_P2
2022/03/13 00:02:07;;;;;;;20.00;14.52;;;6.20;99.90;;;;;;5036340;28;20037;-77
2022/03/13 00:04:37;;;;;;;21.45;14.77;;;6.20;99.90;;;;;;5016949;28;20049;-77
2022/03/13 00:07:18;;;;;;;19.73;14.93;;;6.20;83.50;;;;;;5018655;28;20041;-77
2022/03/13 00:09:52;;;;;;;21.13;15.00;;;6.30;99.90;;;;;;5035200;28;20562;-78
2022/03/13 00:12:30;;;;;;;22.02;15.85;;;6.20;99.90;;;;;;5042476;28;20555;-77
2022/03/13 00:14:57;;;;;;;18.65;14.38;;;6.30;99.90;;;;;;5032665;28;20049;-77
2022/03/13 00:17:29;;;;;;;19.42;14.85;;;6.30;99.90;;;;;;5035443;28;20480;-77
2022/03/13 00:20:00;;;;;;;20.55;15.10;;;6.40;99.90;;;;;;5018154;28;20119;-77
2022/03/13 00:22:27;;;;;;;19.73;14.38;;;6.50;57.80;;;;;;5034581;28;20288;-77
2022/03/13 00:24:58;;;;;;;20.27;15.30;;;6.50;1.00;;;;;;5016453;28;20063;-77
2022/03/13 00:27:24;;;;;;;19.42;14.68;;;6.60;29.50;;;;;;5032074;28;20088;-77
2022/03/13 00:29:49;;;;;;;20.35;14.02;;;6.70;10.80;;;;;;5034796;28;20055;-78
2022/03/13 00:32:22;;;;;;;19.75;14.90;;;6.70;19.40;;;;;;5018280;28;20661;-77
2022/03/13 00:34:48;;;;;;;18.52;14.40;;;6.70;1.00;;;;;;5034673;28;20547;-77
2022/03/13 00:37:14;;;;;;;20.30;15.10;;;6.70;1.00;;;;;;5018176;28;20040;-77
2022/03/13 00:39:40;;;;;;;24.75;15.40;;;6.80;1.00;;;;;;5018604;28;20059;-77
2022/03/13 00:42:09;;;;;;;20.70;15.10;;;6.80;1.00;;;;;;5047134;28;20037;-77
2022/03/13 00:44:35;;;;;;;20.45;14.52;;;6.80;1.00;;;;;;5032046;28;20143;-77
2022/03/13 00:47:00;;;;;;;20.92;15.23;;;6.80;1.00;;;;;;5034222;28;20148;-78
2022/03/13 00:49:26;;;;;;;20.23;14.93;;;6.80;1.00;;;;;;5017288;28;20079;-78
2022/03/13 00:51:57;;;;;;;21.08;15.05;;;6.90;1.00;;;;;;5034644;28;20063;-78
2022/03/13 00:54:22;;;;;;;20.75;14.90;;;6.90;1.00;;;;;;5033547;28;20045;-77
2022/03/13 00:56:48;;;;;;;19.17;15.32;;;6.90;1.00;;;;;;5016247;28;20044;-78
2022/03/13 00:59:14;;;;;;;20.42;14.60;;;7.00;1.00;;;;;;5031927;28;20526;-77
2022/03/13 01:01:43;;;;;;;20.45;15.38;;;7.00;1.00;;;;;;5016913;28;20029;-78
2022/03/13 01:04:08;;;;;;;20.67;15.15;;;7.00;1.00;;;;;;5014518;28;20060;-77
2022/03/13 01:06:41;;;;;;;23.00;14.93;;;7.00;1.00;;;;;;5017539;28;20516;-77
2022/03/13 01:09:09;;;;;;;21.58;15.40;;;7.00;1.00;;;;;;5032760;28;20056;-78
2022/03/13 01:11:35;;;;;;;18.45;14.27;;;7.00;8.80;;;;;;5033011;28;20401;-77
2022/03/13 01:14:07;;;;;;;21.10;15.57;;;7.00;15.80;;;;;;5019403;28;20057;-77
2022/03/13 01:16:39;;;;;;;21.75;15.52;;;7.00;1.00;;;;;;5016647;28;20045;-78
2022/03/13 01:19:08;;;;;;;21.45;15.63;;;7.10;1.00;;;;;;5033766;28;20401;-77
2022/03/13 01:21:42;;;;;;;20.02;15.43;;;7.20;1.00;;;;;;5033333;28;20550;-77
2022/03/13 01:24:09;;;;;;;20.95;15.82;;;7.10;1.00;;;;;;5032982;28;20451;-77
2022/03/13 01:26:38;;;;;;;20.52;14.77;;;7.10;1.00;;;;;;5048372;28;20526;-77
2022/03/13 01:29:17;;;;;;;21.20;15.77;;;7.10;1.00;;;;;;5033264;28;20051;-77
2022/03/13 01:31:46;;;;;;;21.45;14.70;;;7.20;1.00;;;;;;5034050;28;20540;-77
2022/03/13 01:34:32;;;;;;;20.30;15.48;;;7.20;1.00;;;;;;5031102;28;20044;-77
2022/03/13 01:36:58;;;;;;;23.13;16.08;;;7.20;1.00;;;;;;5042257;28;20049;-78
2022/03/13 01:39:24;;;;;;;19.33;15.32;;;7.10;1.00;;;;;;5016310;28;20116;-78
2022/03/13 01:41:50;;;;;;;21.58;15.63;;;7.20;1.00;;;;;;5016198;28;20079;-78
2022/03/13 01:44:21;;;;;;;20.33;15.88;;;7.20;1.00;;;;;;5014246;28;20032;-77
2022/03/13 01:46:48;;;;;;;21.08;15.30;;;7.20;1.00;;;;;;5032850;28;20044;-77
2022/03/13 01:49:13;;;;;;;21.75;15.50;;;7.20;1.00;;;;;;5034592;28;20047;-77
2022/03/13 01:51:39;;;;;;;19.33;15.07;;;7.20;1.00;;;;;;5031201;28;20340;-77
2022/03/13 01:54:10;;;;;;;21.27;15.57;;;7.10;1.00;;;;;;5031768;28;20910;-77
2022/03/13 01:56:41;;;;;;;18.98;15.35;;;7.10;1.00;;;;;;5048272;28;20045;-77
2022/03/13 01:59:09;;;;;;;20.70;15.70;;;7.20;1.00;;;;;;5017778;28;20041;-78
2022/03/13 02:01:39;;;;;;;21.90;16.33;;;7.20;1.00;;;;;;5028972;28;20033;-77
2022/03/13 02:04:05;;;;;;;19.98;15.27;;;7.20;1.00;;;;;;5032148;28;20542;-78
2022/03/13 02:06:30;;;;;;;19.27;14.45;;;7.20;1.00;;;;;;5032885;28;20033;-77
2022/03/13 02:08:56;;;;;;;21.50;15.23;;;7.20;1.00;;;;;;5033458;28;20049;-77
2022/03/13 02:11:24;;;;;;;19.83;15.90;;;7.10;1.00;;;;;;5035775;28;20400;-77
2022/03/13 02:14:01;;;;;;;20.88;15.68;;;7.10;1.00;;;;;;5038459;28;20572;-77
2022/03/13 02:16:33;;;;;;;21.25;16.67;;;7.10;1.00;;;;;;5032391;28;20538;-77
2022/03/13 02:18:59;;;;;;;21.58;15.70;;;7.10;1.00;;;;;;5037451;28;20264;-77
2022/03/13 02:21:31;;;;;;;21.58;16.00;;;7.10;41.80;;;;;;5022775;28;20507;-78
2022/03/13 02:24:05;;;;;;;21.30;16.00;;;7.10;1.00;;;;;;5018307;28;20422;-77
2022/03/13 02:26:35;;;;;;;20.30;16.00;;;7.10;95.90;;;;;;5018470;28;20098;-77
2022/03/13 02:29:01;;;;;;;21.38;15.85;;;7.10;70.80;;;;;;5035395;28;20029;-77
2022/03/13 02:31:34;;;;;;;21.73;15.65;;;7.10;42.60;;;;;;5019613;28;20037;-77
2022/03/13 02:34:01;;;;;;;24.00;16.40;;;7.20;1.00;;;;;;5053149;28;20517;-77
2022/03/13 02:36:49;;;;;;;22.58;16.35;;;7.20;1.00;;;;;;5037604;28;20357;-77
2022/03/13 02:39:15;;;;;;;21.15;15.35;;;7.20;30.40;;;;;;5020843;28;20037;-77
2022/03/13 02:41:44;;;;;;;23.27;15.48;;;7.20;1.00;;;;;;5036097;28;20434;-77
2022/03/13 02:44:14;;;;;;;20.80;14.85;;;7.20;26.70;;;;;;5037020;28;20033;-77
2022/03/13 02:46:46;;;;;;;22.17;14.43;;;7.30;1.00;;;;;;5033826;28;20049;-77
2022/03/13 02:49:14;;;;;;;22.33;16.02;;;7.30;1.00;;;;;;5052304;28;20082;-77
2022/03/13 02:51:41;;;;;;;20.90;16.33;;;7.30;1.00;;;;;;5035895;28;20599;-77
2022/03/13 02:54:11;;;;;;;21.00;15.60;;;7.30;1.00;;;;;;5036186;28;20037;-77
2022/03/13 02:56:37;;;;;;;20.55;15.50;;;7.20;1.00;;;;;;5034260;28;20041;-77
2022/03/13 02:59:06;;;;;;;19.67;15.35;;;7.20;68.30;;;;;;5018184;28;20102;-77
2022/03/13 03:01:32;;;;;;;20.95;16.05;;;7.20;1.00;;;;;;5017854;28;20078;-78
2022/03/13 03:03:59;;;;;;;20.70;14.48;;;7.20;74.00;;;;;;5033032;28;20644;-77
2022/03/13 03:06:27;;;;;;;20.88;15.57;;;7.20;22.30;;;;;;5035464;28;20032;-78
2022/03/13 03:08:53;;;;;;;22.15;15.82;;;7.20;59.80;;;;;;5034278;28;20265;-77
2022/03/13 03:11:19;;;;;;;22.23;15.30;;;7.20;99.90;;;;;;5017005;28;20041;-77
2022/03/13 03:13:47;;;;;;;20.58;15.90;;;7.20;83.10;;;;;;5018590;28;20053;-78
2022/03/13 03:16:13;;;;;;;22.77;16.13;;;7.20;12.50;;;;;;5015756;28;20170;-77
2022/03/13 03:18:42;;;;;;;21.33;15.75;;;7.20;10.40;;;;;;5035507;28;20036;-77
2022/03/13 03:21:07;;;;;;;22.05;15.52;;;7.20;60.70;;;;;;5032676;28;20563;-78
2022/03/13 03:23:34;;;;;;;22.20;15.80;;;7.20;99.90;;;;;;5033371;28;20037;-78
2022/03/13 03:26:00;;;;;;;23.20;16.55;;;7.20;46.30;;;;;;5033061;28;20029;-78
2022/03/13 03:28:25;;;;;;;22.67;15.98;;;7.20;99.90;;;;;;5020287;28;20750;-77
2022/03/13 03:30:51;;;;;;;20.52;15.30;;;7.10;88.70;;;;;;5032610;28;20130;-77
2022/03/13 03:33:17;;;;;;;22.52;15.77;;;7.10;99.90;;;;;;5033741;28;20395;-77
2022/03/13 03:35:42;;;;;;;19.90;15.68;;;7.10;99.90;;;;;;5016974;28;20471;-77
2022/03/13 03:38:08;;;;;;;19.63;15.82;;;7.00;99.90;;;;;;5017247;28;20043;-77
2022/03/13 03:40:35;;;;;;;23.10;15.35;;;7.00;99.90;;;;;;5032087;28;20519;-77
2022/03/13 03:43:04;;;;;;;20.52;15.80;;;7.00;99.90;;;;;;5018595;28;20388;-78
2022/03/13 03:45:33;;;;;;;20.25;15.93;;;6.90;99.90;;;;;;5034305;28;20036;-77
2022/03/13 03:48:01;;;;;;;20.05;15.13;;;6.80;99.90;;;;;;5017817;28;20049;-78
2022/03/13 03:50:28;;;;;;;19.73;15.63;;;6.70;99.90;;;;;;5031799;28;20135;-77
2022/03/13 03:52:57;;;;;;;20.85;15.20;;;6.70;99.90;;;;;;5034462;28;20080;-78
2022/03/13 03:55:29;;;;;;;22.55;16.48;;;6.60;99.90;;;;;;5032664;28;20282;-78
2022/03/13 03:57:55;;;;;;;23.75;16.45;;;6.50;99.90;;;;;;5016617;28;20547;-77
2022/03/13 04:00:24;;;;;;;23.17;15.48;;;6.50;99.90;;;;;;5033745;28;20037;-78
2022/03/13 04:02:53;;;;;;;22.10;16.50;;;6.40;99.90;;;;;;5016591;28;20106;-77
2022/03/13 04:05:23;;;;;;;20.33;15.52;;;6.40;99.90;;;;;;5029600;28;20076;-77
2022/03/13 04:07:51;;;;;;;22.25;15.80;;;6.30;99.90;;;;;;5033417;28;20376;-77
2022/03/13 04:10:20;;;;;;;22.67;16.83;;;6.20;99.90;;;;;;5048080;28;20051;-77
2022/03/13 04:12:46;;;;;;;21.90;16.17;;;6.10;99.90;;;;;;5018918;28;20036;-77
2022/03/13 04:15:20;;;;;;;21.17;16.23;;;6.00;99.90;;;;;;5017096;28;20510;-77
2022/03/13 04:17:46;;;;;;;20.95;16.30;;;5.90;99.90;;;;;;5031617;28;20036;-77
2022/03/13 04:20:11;;;;;;;19.75;16.08;;;5.80;99.90;;;;;;5032482;28;20036;-77
2022/03/13 04:22:37;;;;;;;23.50;16.23;;;5.80;99.90;;;;;;5017538;28;20625;-77
2022/03/13 04:25:03;;;;;;;21.98;16.50;;;5.70;99.90;;;;;;5019146;28;20192;-77
2022/03/13 04:27:30;;;;;;;21.40;15.98;;;5.70;99.90;;;;;;5016642;28;20176;-77
2022/03/13 04:29:59;;;;;;;23.73;17.25;;;5.60;99.90;;;;;;5029825;28;20045;-77
2022/03/13 04:32:27;;;;;;;22.25;15.95;;;5.60;99.90;;;;;;5018173;28;20064;-77
2022/03/13 04:34:53;;;;;;;20.65;16.08;;;5.60;99.90;;;;;;5014280;28;20033;-76
2022/03/13 04:37:21;;;;;;;22.05;17.05;;;5.60;99.90;;;;;;5050772;28;20033;-77
2022/03/13 04:39:50;;;;;;;22.90;17.42;;;5.50;99.90;;;;;;5018214;28;20056;-77
2022/03/13 04:42:22;;;;;;;22.35;16.75;;;5.50;99.90;;;;;;5016100;28;20869;-77
2022/03/13 04:44:48;;;;;;;22.95;16.88;;;5.50;99.90;;;;;;5030507;28;20037;-77
2022/03/13 04:47:17;;;;;;;19.65;16.20;;;5.50;99.90;;;;;;5016907;28;20057;-77
2022/03/13 04:49:43;;;;;;;22.65;16.65;;;5.50;99.90;;;;;;5017001;28;20045;-77
2022/03/13 04:52:09;;;;;;;22.40;16.10;;;5.50;99.90;;;;;;5030816;28;20052;-77
2022/03/13 04:54:34;;;;;;;23.45;16.27;;;5.50;99.90;;;;;;5016307;28;20063;-77
2022/03/13 04:57:00;;;;;;;28.10;16.90;;;5.50;99.90;;;;;;5031526;28;20134;-78
2022/03/13 04:59:26;;;;;;;22.88;16.65;;;5.50;99.90;;;;;;5033528;28;20106;-77
2022/03/13 05:01:52;;;;;;;22.73;16.48;;;5.50;99.90;;;;;;5031360;28;20128;-77
2022/03/13 05:04:18;;;;;;;21.38;16.45;;;5.50;99.90;;;;;;5034929;28;20514;-77
2022/03/13 05:06:49;;;;;;;24.98;16.27;;;5.50;99.90;;;;;;5016422;28;20414;-77
2022/03/13 05:09:15;;;;;;;20.92;15.88;;;5.50;99.90;;;;;;5017055;28;20045;-76
2022/03/13 05:11:45;;;;;;;23.65;17.05;;;5.40;99.90;;;;;;5033730;28;20460;-78
2022/03/13 05:14:11;;;;;;;22.20;15.57;;;5.30;99.90;;;;;;5015527;28;20337;-77
2022/03/13 05:16:43;;;;;;;21.52;16.65;;;5.30;99.90;;;;;;5015946;28;20488;-77
2022/03/13 05:19:14;;;;;;;23.27;16.52;;;5.20;99.90;;;;;;5015044;28;21506;-77
2022/03/13 05:21:41;;;;;;;21.58;15.88;;;5.20;99.90;;;;;;5032424;28;20025;-77
2022/03/13 05:24:07;;;;;;;21.30;16.08;;;5.10;99.90;;;;;;5017048;28;20029;-77
2022/03/13 05:26:33;;;;;;;24.40;16.83;;;5.10;99.90;;;;;;5030223;28;20029;-77
2022/03/13 05:28:59;;;;;;;22.75;16.45;;;5.00;99.90;;;;;;5016511;28;20072;-77
2022/03/13 05:31:25;;;;;;;23.90;16.48;;;5.00;99.90;;;;;;5031386;28;20448;-77
2022/03/13 05:33:54;;;;;;;20.88;15.98;;;5.00;99.90;;;;;;5034155;28;20037;-77
2022/03/13 05:36:22;;;;;;;22.80;15.38;;;5.00;99.90;;;;;;5030966;28;20087;-77
2022/03/13 05:38:53;;;;;;;24.33;16.25;;;5.00;99.90;;;;;;5015254;28;20186;-77
2022/03/13 05:41:22;;;;;;;20.95;15.88;;;5.00;99.90;;;;;;5011993;28;20036;-77
2022/03/13 05:43:51;;;;;;;21.40;15.95;;;5.10;99.90;;;;;;5046926;28;20048;-78
2022/03/13 05:46:16;;;;;;;22.42;15.98;;;5.20;99.90;;;;;;5031212;28;20052;-77
2022/03/13 05:48:42;;;;;;;22.15;15.60;;;5.20;99.90;;;;;;5031531;28;20376;-77
2022/03/13 05:51:17;;;;;;;21.58;15.13;;;5.30;99.90;;;;;;5032253;28;20448;-77
2022/03/13 05:53:48;;;;;;;20.77;15.38;;;5.40;99.90;;;;;;5016386;28;20076;-77
2022/03/13 05:56:14;;;;;;;20.45;14.73;;;5.50;99.90;;;;;;5014297;28;20025;-77
2022/03/13 05:58:40;;;;;;;20.88;15.32;;;5.50;99.90;;;;;;5031589;28;20037;-77
2022/03/13 06:01:06;;;;;;;20.40;16.08;;;5.50;99.90;;;;;;5015782;28;20025;-78
2022/03/13 06:03:34;;;;;;;17.70;14.25;;;5.60;99.90;;;;;;5014889;28;20651;-78
2022/03/13 06:06:03;;;;;;;19.23;15.07;;;5.60;98.30;;;;;;5016015;28;20271;-77
2022/03/13 06:08:30;;;;;;;20.95;14.90;;;5.70;91.40;;;;;;5048208;28;20509;-77
2022/03/13 06:10:57;;;;;;;18.65;14.30;;;5.70;81.20;;;;;;5032090;28;20048;-77
2022/03/13 06:13:27;;;;;;;19.30;15.30;;;5.80;54.90;;;;;;5016453;28;20771;-77
2022/03/13 06:15:57;;;;;;;19.42;14.63;;;5.80;1.00;;;;;;5014387;28;20618;-77
2022/03/13 06:18:32;;;;;;;18.75;14.57;;;5.80;1.00;;;;;;5017663;28;20528;-78
2022/03/13 06:20:59;;;;;;;22.63;15.02;;;5.80;1.00;;;;;;5046236;28;20130;-77
2022/03/13 06:23:29;;;;;;;18.80;13.77;;;5.90;1.00;;;;;;5015192;28;20524;-78
2022/03/13 06:26:00;;;;;;;20.25;14.95;;;5.90;99.90;;;;;;5013286;28;20037;-77
2022/03/13 06:28:26;;;;;;;16.67;13.82;;;5.90;99.90;;;;;;5031370;28;20103;-78
2022/03/13 06:30:55;;;;;;;19.27;13.90;;;5.90;99.90;;;;;;5014084;28;20464;-77
2022/03/13 06:33:21;;;;;;;18.63;13.43;;;6.00;99.90;;;;;;5015296;28;20056;-77
2022/03/13 06:35:46;;;;;;;20.33;14.52;;;6.00;99.90;;;;;;5029946;28;20664;-77
2022/03/13 06:38:12;;;;;;;18.85;13.60;;;6.00;99.90;;;;;;5016535;28;20060;-77
2022/03/13 06:40:38;;;;;;;19.05;14.50;;;6.10;99.90;;;;;;5030378;28;20029;-77
2022/03/13 06:43:03;;;;;;;21.17;14.75;;;6.10;99.90;;;;;;5015254;28;20475;-77
2022/03/13 06:45:29;;;;;;;17.67;13.43;;;6.20;99.90;;;;;;5046715;28;20037;-78
2022/03/13 06:47:55;;;;;;;18.25;13.27;;;6.20;99.90;;;;;;5046965;28;20224;-77
2022/03/13 06:50:24;;;;;;;20.02;14.20;;;6.20;99.90;;;;;;5030312;28;20139;-77
2022/03/13 06:52:54;;;;;;;20.75;13.50;;;6.20;99.90;;;;;;5030375;28;20045;-77
2022/03/13 06:55:23;;;;;;;18.20;13.63;;;6.20;99.90;;;;;;5031977;28;20037;-77
2022/03/13 06:57:50;;;;;;;18.30;13.60;;;6.30;99.90;;;;;;5015239;28;20546;-77
2022/03/13 07:00:17;;;;;;;18.50;13.55;;;6.30;99.90;;;;;;5033365;28;20523;-77
2022/03/13 07:02:45;;;;;;;18.40;13.27;;;6.30;99.90;;;;;;5035674;28;20479;-77
2022/03/13 07:05:11;;;;;;;20.52;13.65;;;6.40;99.90;;;;;;5016662;28;20119;-78
2022/03/13 07:07:36;;;;;;;17.65;13.60;;;6.40;99.90;;;;;;5017468;28;20158;-78
2022/03/13 07:10:06;;;;;;;16.48;13.38;;;6.50;99.90;;;;;;5052263;28;20025;-77
2022/03/13 07:12:34;;;;;;;17.00;12.90;;;6.50;99.90;;;;;;5031671;28;20045;-77
2022/03/13 07:15:03;;;;;;;18.50;13.07;;;6.60;99.90;;;;;;5051613;28;20045;-78
2022/03/13 07:17:29;;;;;;;18.42;13.82;;;6.60;99.90;;;;;;5034228;28;20029;-78
2022/03/13 07:19:55;;;;;;;18.05;13.40;;;6.60;99.90;;;;;;5033472;28;20382;-77
2022/03/13 07:22:21;;;;;;;17.63;13.35;;;6.70;99.90;;;;;;5033983;28;20040;-77
2022/03/13 07:24:49;;;;;;;17.52;13.75;;;6.80;99.90;;;;;;5053643;28;20029;-77
2022/03/13 07:27:15;;;;;;;18.70;13.18;;;6.80;99.90;;;;;;5017300;28;20045;-77
2022/03/13 07:29:41;;;;;;;18.52;12.55;;;7.00;99.90;;;;;;5033653;28;20041;-77
2022/03/13 07:32:21;;;;;;;19.20;13.13;;;7.10;99.90;;;;;;5034105;28;20052;-77
2022/03/13 07:34:47;;;;;;;18.67;13.48;;;7.10;99.90;;;;;;5033358;28;20112;-77
2022/03/13 07:37:13;;;;;;;17.50;13.18;;;7.30;99.90;;;;;;5051258;28;20171;-78
2022/03/13 07:39:39;;;;;;;20.90;14.13;;;7.30;99.90;;;;;;5016409;28;20041;-78
2022/03/13 07:42:06;;;;;;;18.35;13.40;;;7.30;99.90;;;;;;5018947;28;20674;-77
2022/03/13 07:44:34;;;;;;;19.08;14.30;;;7.50;99.90;;;;;;5032510;28;20068;-78
2022/03/13 07:47:00;;;;;;;18.80;13.63;;;7.50;99.90;;;;;;5031746;28;20110;-77
2022/03/13 07:49:25;;;;;;;18.35;13.55;;;7.70;99.90;;;;;;5032811;28;20045;-77
2022/03/13 07:51:51;;;;;;;17.33;13.68;;;7.70;97.00;;;;;;5017326;28;20041;-77
2022/03/13 07:54:19;;;;;;;17.65;13.35;;;7.80;68.90;;;;;;5016257;28;20033;-78
2022/03/13 07:56:50;;;;;;;18.58;13.35;;;8.00;77.80;;;;;;5013084;28;20776;-78
2022/03/13 07:59:21;;;;;;;18.97;14.00;;;8.10;87.00;;;;;;5031948;28;20037;-77
2022/03/13 08:01:52;;;;;;;17.90;13.55;;;8.30;74.70;;;;;;5019884;28;20049;-78
2022/03/13 08:04:21;;;;;;;17.77;13.70;;;8.40;47.60;;;;;;5033616;28;20116;-78
2022/03/13 08:06:50;;;;;;;16.15;12.73;;;8.40;1.00;;;;;;5035089;28;20115;-77
2022/03/13 08:09:16;;;;;;;19.20;13.57;;;8.50;1.00;;;;;;5016609;28;20457;-78
2022/03/13 08:11:42;;;;;;;17.50;13.40;;;8.70;1.00;;;;;;5024631;28;20041;-78
2022/03/13 08:14:12;;;;;;;18.83;13.13;;;8.80;1.00;;;;;;5029309;28;20037;-77
2022/03/13 08:16:38;;;;;;;17.30;13.00;;;8.90;1.00;;;;;;5017427;28;20029;-78
2022/03/13 08:19:05;;;;;;;15.45;12.27;;;9.00;1.00;;;;;;5040059;28;20110;-78
2022/03/13 08:21:34;;;;;;;16.45;12.73;;;9.10;1.00;;;;;;5034351;28;20021;-79
2022/03/13 08:24:02;;;;;;;16.23;11.98;;;9.20;1.00;;;;;;5032705;28;20121;-78
2022/03/13 08:26:31;;;;;;;15.80;12.40;;;9.30;1.00;;;;;;5018223;28;20361;-78
2022/03/13 08:28:57;;;;;;;15.57;12.50;;;9.30;1.00;;;;;;5026667;28;20053;-78
2022/03/13 08:31:22;;;;;;;16.77;11.80;;;9.40;1.00;;;;;;5027746;28;20067;-77
2022/03/13 08:33:49;;;;;;;16.42;12.43;;;9.60;1.00;;;;;;5035860;28;20120;-78
2022/03/13 08:36:14;;;;;;;17.00;12.57;;;9.80;99.90;;;;;;5025463;28;20116;-77
2022/03/13 08:38:40;;;;;;;15.80;12.00;;;9.90;99.90;;;;;;5031236;28;20808;-78
2022/03/13 08:41:09;;;;;;;15.90;12.30;;;10.10;99.90;;;;;;5032384;28;20030;-78
2022/03/13 08:43:37;;;;;;;18.23;11.30;;;10.10;99.90;;;;;;5030126;28;20072;-78
2022/03/13 08:46:03;;;;;;;17.58;12.05;;;10.00;99.90;;;;;;5003623;28;20044;-78
2022/03/13 08:48:29;;;;;;;15.70;11.73;;;9.90;99.90;;;;;;5036513;28;20049;-78
2022/03/13 08:50:58;;;;;;;14.52;11.48;;;10.00;99.90;;;;;;5033417;28;20085;-78
2022/03/13 08:53:31;;;;;;;14.80;11.40;;;10.00;99.90;;;;;;5033912;28;20465;-78
2022/03/13 08:56:00;;;;;;;15.10;11.68;;;10.30;99.90;;;;;;5033812;28;20313;-78
2022/03/13 08:58:26;;;;;;;17.17;12.25;;;10.10;99.90;;;;;;5018255;28;20046;-78
2022/03/13 09:00:52;;;;;;;19.45;11.95;;;10.20;99.90;;;;;;5040150;28;20040;-78
2022/03/13 09:03:18;;;;;;;15.80;11.55;;;10.20;99.90;;;;;;5006948;28;20040;-78
2022/03/13 09:05:45;;;;;;;15.15;11.45;;;10.30;99.90;;;;;;5034990;28;20537;-78
2022/03/13 09:08:11;;;;;;;16.42;11.38;;;10.50;99.90;;;;;;5029561;28;20033;-78
2022/03/13 09:10:37;;;;;;;15.38;11.80;;;10.60;99.90;;;;;;5030481;28;20118;-78
2022/03/13 09:13:03;;;;;;;14.73;11.20;;;10.60;99.90;;;;;;5008893;28;20139;-78
2022/03/13 09:15:31;;;;;;;15.02;11.55;;;10.70;99.90;;;;;;5030776;28;20072;-78
2022/03/13 09:18:01;;;;;;;14.32;11.68;;;10.70;99.90;;;;;;5020012;28;20473;-78
2022/03/13 09:20:28;;;;;;;14.60;11.73;;;10.80;99.90;;;;;;5017619;28;20124;-79
2022/03/13 09:22:55;;;;;;;15.70;12.13;;;10.90;99.90;;;;;;5017305;28;20029;-78
2022/03/13 09:25:21;;;;;;;16.05;11.98;;;10.80;99.90;;;;;;5032636;28;20040;-78
2022/03/13 09:27:48;;;;;;;16.70;11.73;;;10.80;99.90;;;;;;5031452;28;20052;-77
2022/03/13 09:30:14;;;;;;;15.27;12.18;;;11.00;99.90;;;;;;5018997;28;20064;-79
2022/03/13 09:32:41;;;;;;;15.27;11.23;;;11.20;99.90;;;;;;5030259;28;20109;-79
2022/03/13 09:35:07;;;;;;;15.05;11.52;;;11.10;99.90;;;;;;5034079;28;20033;-78
2022/03/13 09:37:32;;;;;;;16.08;12.07;;;11.30;99.90;;;;;;5009474;28;20048;-79
2022/03/13 09:39:58;;;;;;;14.20;11.38;;;11.50;99.90;;;;;;5034331;28;20503;-79
2022/03/13 09:42:24;;;;;;;17.27;12.27;;;11.50;99.90;;;;;;5031435;28;20335;-79
2022/03/13 09:44:53;;;;;;;15.60;11.63;;;11.60;99.90;;;;;;5047510;28;20584;-79
2022/03/13 09:47:25;;;;;;;15.30;12.10;;;11.80;99.90;;;;;;5019765;28;20615;-79
2022/03/13 09:49:51;;;;;;;15.65;11.95;;;11.80;99.90;;;;;;5031745;28;20140;-79
2022/03/13 09:52:16;;;;;;;15.63;11.55;;;11.80;99.90;;;;;;5016286;28;20120;-79
2022/03/13 09:54:42;;;;;;;14.77;11.32;;;11.90;99.90;;;;;;5017868;28;20045;-79
2022/03/13 09:57:08;;;;;;;13.60;11.05;;;11.90;99.90;;;;;;5015982;28;20045;-79
2022/03/13 09:59:34;;;;;;;14.05;11.10;;;12.10;99.90;;;;;;5019697;28;20246;-79
2022/03/13 10:02:04;;;;;;;14.95;11.40;;;12.20;99.90;;;;;;5014148;28;20047;-79
2022/03/13 10:04:31;;;;;;;16.13;11.75;;;12.20;99.90;;;;;;5017280;28;20040;-79
2022/03/13 10:07:04;;;;;;;14.40;11.50;;;12.30;99.90;;;;;;5018075;28;20045;-80
2022/03/13 10:09:31;;;;;;;14.23;11.20;;;12.50;99.90;;;;;;5032694;28;20084;-79
2022/03/13 10:12:04;;;;;;;16.40;11.73;;;12.60;99.90;;;;;;5015692;28;20376;-79
2022/03/13 10:14:30;;;;;;;15.57;11.40;;;12.80;99.90;;;;;;5033489;28;20460;-79
2022/03/13 10:16:55;;;;;;;18.38;11.88;;;12.80;99.90;;;;;;5016926;28;20041;-79
2022/03/13 10:19:23;;;;;;;16.05;12.13;;;12.80;99.90;;;;;;5034559;28;20064;-79
2022/03/13 10:22:04;;;;;;;15.18;11.93;;;12.90;99.90;;;;;;5019353;28;20051;-79
2022/03/13 10:24:39;;;;;;;15.23;11.85;;;13.10;99.90;;;;;;5017284;28;20041;-78
2022/03/13 10:27:23;;;;;;;18.27;11.65;;;13.20;99.90;;;;;;5016930;28;20040;-79
2022/03/13 10:29:49;;;;;;;15.98;12.10;;;13.10;99.90;;;;;;5028222;28;20045;-79
2022/03/13 10:32:20;;;;;;;14.82;11.23;;;13.00;99.90;;;;;;5019703;28;20094;-79
2022/03/13 10:34:58;;;;;;;17.40;11.40;;;13.20;99.90;;;;;;5036656;28;20417;-79
2022/03/13 10:37:43;;;;;;;17.77;12.40;;;13.30;99.90;;;;;;5017729;28;20251;-79
2022/03/13 10:40:17;;;;;;;15.30;12.23;;;13.60;99.90;;;;;;5021541;28;20037;-79
2022/03/13 10:42:43;;;;;;;13.20;11.00;;;13.70;99.90;;;;;;5036203;28;20029;-79
2022/03/13 10:45:37;;;;;;;15.00;11.68;;;14.00;99.90;;;;;;5029346;28;20056;-79
2022/03/13 10:48:28;;;;;;;18.52;12.00;;;14.20;99.90;;;;;;5018787;28;20048;-79
2022/03/13 10:50:58;;;;;;;14.68;11.85;;;14.10;99.90;;;;;;5038423;28;20106;-79
2022/03/13 10:53:26;;;;;;;16.05;12.20;;;14.10;99.90;;;;;;5021331;28;20041;-79
2022/03/13 10:56:13;;;;;;;20.00;11.35;;;14.30;99.90;;;;;;5022964;28;20041;-79
2022/03/13 10:58:45;;;;;;;15.80;11.80;;;14.60;99.90;;;;;;5034719;28;20584;-79
2022/03/13 11:01:14;;;;;;;15.55;11.70;;;14.70;99.90;;;;;;5034643;28;20388;-79
2022/03/13 11:03:54;;;;;;;13.90;11.48;;;15.00;99.90;;;;;;5035926;28;20065;-79
2022/03/13 11:06:22;;;;;;;13.95;11.27;;;15.10;99.90;;;;;;5037184;28;20040;-79
2022/03/13 11:08:55;;;;;;;14.10;11.40;;;15.20;99.90;;;;;;5020771;28;20043;-79
2022/03/13 11:11:27;;;;;;;14.48;11.30;;;15.40;99.90;;;;;;5017583;28;20067;-79
2022/03/13 11:14:01;;;;;;;14.63;11.27;;;15.40;99.90;;;;;;5020263;28;20579;-79
2022/03/13 11:16:34;;;;;;;15.27;11.93;;;15.60;99.90;;;;;;5029560;28;20045;-79
2022/03/13 11:19:05;;;;;;;18.73;11.80;;;15.80;99.90;;;;;;5020219;28;20033;-79
2022/03/13 11:21:32;;;;;;;17.02;12.23;;;15.90;99.90;;;;;;5034892;28;20444;-79
2022/03/13 11:24:00;;;;;;;14.05;11.73;;;15.90;99.90;;;;;;5035249;28;20563;-79
2022/03/13 11:26:31;;;;;;;15.15;12.13;;;16.10;99.90;;;;;;5021089;28;20037;-79
2022/03/13 11:28:58;;;;;;;14.68;11.63;;;16.30;99.90;;;;;;5020783;28;20488;-80
2022/03/13 11:31:50;;;;;;;13.18;11.07;;;16.30;99.90;;;;;;5031298;28;20042;-79
2022/03/13 11:34:23;;;;;;;15.25;11.40;;;16.40;99.90;;;;;;5011257;28;20067;-79
2022/03/13 11:36:53;;;;;;;14.07;11.35;;;16.50;99.90;;;;;;5036173;28;20036;-79
2022/03/13 11:39:27;;;;;;;15.60;11.88;;;16.50;99.90;;;;;;5019865;28;20108;-79
2022/03/13 11:41:53;;;;;;;16.48;11.73;;;16.50;99.90;;;;;;5014488;28;20108;-79
2022/03/13 11:44:21;;;;;;;14.45;11.45;;;16.70;99.90;;;;;;5021115;28;20203;-80
2022/03/13 11:46:51;;;;;;;14.73;11.15;;;16.70;99.90;;;;;;5019041;28;20069;-79
2022/03/13 11:49:33;;;;;;;14.35;11.13;;;16.70;99.90;;;;;;5047188;28;20067;-79
2022/03/13 11:52:17;;;;;;;14.38;11.75;;;16.70;99.90;;;;;;5037051;28;20037;-80
2022/03/13 11:55:00;;;;;;;17.73;12.00;;;16.90;99.90;;;;;;5015731;28;20060;-79
2022/03/13 11:57:44;;;;;;;16.38;11.70;;;17.10;99.90;;;;;;5019871;28;20059;-80
2022/03/13 12:00:12;;;;;;;12.55;10.57;;;17.30;99.90;;;;;;5035482;28;20162;-80
2022/03/13 12:02:41;;;;;;;14.98;12.10;;;17.40;99.90;;;;;;5026871;28;20064;-79
2022/03/13 12:05:25;;;;;;;17.58;11.73;;;17.10;99.90;;;;;;5035790;28;20071;-79
2022/03/13 12:07:55;;;;;;;13.88;11.85;;;17.20;99.90;;;;;;5036580;28;20128;-80
2022/03/13 12:10:42;;;;;;;14.30;11.13;;;17.40;99.90;;;;;;5018613;28;20033;-79
2022/03/13 12:13:12;;;;;;;18.13;11.98;;;17.30;99.90;;;;;;5019298;28;20053;-79
2022/03/13 12:15:40;;;;;;;13.73;11.23;;;17.60;99.90;;;;;;5028420;28;20048;-80
2022/03/13 12:18:17;;;;;;;12.52;11.23;;;17.40;99.90;;;;;;5020365;28;20042;-80
2022/03/13 12:20:44;;;;;;;14.52;11.10;;;17.60;99.90;;;;;;5019646;28;20478;-79
2022/03/13 12:23:23;;;;;;;13.05;10.98;;;17.50;99.90;;;;;;5033066;28;20037;-80
2022/03/13 12:25:50;;;;;;;16.75;11.68;;;17.50;99.90;;;;;;5034550;28;20120;-80
2022/03/13 12:28:19;;;;;;;13.73;11.68;;;17.20;99.90;;;;;;5032091;28;20228;-80
2022/03/13 12:30:44;;;;;;;15.45;11.63;;;17.60;99.90;;;;;;5034083;28;20052;-79
2022/03/13 12:33:14;;;;;;;15.60;11.60;;;17.40;99.90;;;;;;5016311;28;20037;-79
2022/03/13 12:35:41;;;;;;;16.02;12.32;;;17.50;99.90;;;;;;5036481;28;20051;-80
2022/03/13 12:38:06;;;;;;;15.65;11.82;;;17.50;99.90;;;;;;5015625;28;20094;-80
2022/03/13 12:40:45;;;;;;;13.85;11.75;;;17.60;99.90;;;;;;5018796;28;20279;-80
2022/03/13 12:43:13;;;;;;;16.05;11.75;;;17.60;99.90;;;;;;5031302;28;20484;-80
2022/03/13 12:45:51;;;;;;;13.48;11.88;;;17.50;99.90;;;;;;5018924;28;20136;-80